KINL/INL METAR and TAF weather

Enter ICAO airport designator
Station Type Date Time Source
KINL METAR 2021/05/13 17:54 UTC NOAA

KINL 131754Z AUTO 19009G19KT 150V230 10SM OVC090 20/M02 A3020 RMK AO2 SLP232 T02001017 10200 20061 58011


Station Type Date Time Source
KINL Decoded METAR 2021/05/13 17:54 UTC NOAA

FALLS INTERNATIONAL AIRPORT , MN, United States (KINL) 48-34N 093-24W 360M
May 13, 2021 - 01:54 PM EDT / 2021.05.13 1754 UTC
Wind: from the S (190 degrees) at 10 MPH (9 KT) gusting to 22 MPH (19 KT) (direction variable):0
Visibility: 10 mile(s):0
Sky conditions: overcast
Temperature: 68.0 F (20.0 C)
Dew Point: 28.9 F (-1.7 C)
Relative Humidity: 23%
Pressure (altimeter): 30.2 in. Hg (1022 hPa)
Pressure tendency: 0.03 inches (1.1 hPa) lower than three hours ago
ob: KINL 131754Z AUTO 19009G19KT 150V230 10SM OVC090 20/M02 A3020 RMK AO2 SLP232 T02001017 10200 20061 58011
cycle: 18

Station Type Date Time Source
KINL TAF 2021/05/13 18:33 UTC NOAA

TAF KINL 131731Z 1318/1418 21009KT P6SM BKN090
FM140100 20005KT P6SM SCT250
FM141500 21006KT P6SM FEW060 SCT120

Example: see airport list